Talagante, Chile
Current Conditions -  °F | °C
As of 9:00 PM on Monday 22 Dec 2014 (Local Time) from SCTB Reporting Station
Clear Clear  
Wind Chill: 75°   Ceiling: Unl
Heat Index: 75°   Visibility: 6mi
Dew Point: 32°   Wind: 2mph
Humidity: 21%   Direction: 210°SSW
Pressure: 30"   Gusts: NA
Location:  33.4°S, 70.5°W
Report Text: SCTB 230000Z 21002KT CAVOK 24/00 Q1016
Loading
Personal Weather Stations






























Interactive Weather Map New forecast layout! Learn more

10-Day Weather Forecast

Advertisements
Track Severe Weather on mobile